Time;durP1;ratioP1;P1;durP2;ratioP2;P2;SDS_P1;SDS_P2;PMS_P1;PMS_P2;Temp;Humidity;BMP_temperature;BMP_pressure;BME280_temperature;BME280_humidity;BME280_pressure;Samples;Min_cycle;Max_cycle;Signal;HPM_P1;HPM_P2
2023/06/27 00:00:55;;;;;;;10.25;6.80;;;21.40;99.90;;;;;;5052904;28;20234;-82
2023/06/27 00:03:24;;;;;;;6.60;5.97;;;21.40;99.90;;;;;;5052171;28;20313;-65
2023/06/27 00:05:51;;;;;;;7.53;6.78;;;21.50;99.90;;;;;;5052455;28;20750;-65
2023/06/27 00:08:18;;;;;;;7.45;6.55;;;21.50;99.90;;;;;;5052371;28;20265;-65
2023/06/27 00:10:45;;;;;;;6.72;5.97;;;21.50;99.90;;;;;;5052958;28;20210;-65
2023/06/27 00:13:16;;;;;;;9.32;7.13;;;21.50;99.90;;;;;;5052737;28;20239;-66
2023/06/27 00:15:44;;;;;;;6.70;6.00;;;21.50;99.90;;;;;;5052648;28;20231;-65
2023/06/27 00:18:11;;;;;;;8.70;6.60;;;21.50;99.90;;;;;;5052310;28;20243;-66
2023/06/27 00:20:38;;;;;;;8.75;7.35;;;21.60;99.90;;;;;;5051628;28;20307;-66
2023/06/27 00:23:19;;;;;;;10.57;7.35;;;21.60;99.90;;;;;;5052309;28;20645;-66
2023/06/27 00:25:46;;;;;;;7.78;7.00;;;21.70;99.90;;;;;;5052441;28;20295;-66
2023/06/27 00:28:13;;;;;;;7.35;6.68;;;21.70;99.90;;;;;;5052290;28;20273;-66
2023/06/27 00:30:40;;;;;;;7.85;7.05;;;21.80;99.90;;;;;;5046974;28;20239;-66
2023/06/27 00:33:10;;;;;;;9.35;8.27;;;21.70;99.90;;;;;;5040587;28;20318;-67
2023/06/27 00:35:39;;;;;;;8.35;7.43;;;21.70;99.90;;;;;;5035270;28;20211;-66
2023/06/27 00:38:06;;;;;;;10.07;7.63;;;21.70;99.90;;;;;;5048943;28;20230;-66
2023/06/27 00:40:33;;;;;;;7.90;7.10;;;21.80;99.90;;;;;;5037404;28;20254;-66
2023/06/27 00:43:00;;;;;;;8.15;7.35;;;21.80;99.90;;;;;;5051998;28;20246;-66
2023/06/27 00:45:26;;;;;;;10.30;7.78;;;21.70;99.90;;;;;;5051222;28;20207;-67
2023/06/27 00:47:54;;;;;;;9.57;7.20;;;21.60;99.90;;;;;;5045571;28;20231;-67
2023/06/27 00:50:22;;;;;;;8.15;6.72;;;21.60;99.90;;;;;;5043526;28;20217;-66
2023/06/27 00:52:50;;;;;;;8.88;7.90;;;21.60;99.90;;;;;;5051046;28;20301;-66
2023/06/27 00:55:18;;;;;;;8.50;7.65;;;21.60;99.90;;;;;;5051726;28;20238;-66
2023/06/27 00:57:47;;;;;;;8.75;7.93;;;21.60;99.90;;;;;;5052042;28;20246;-74
2023/06/27 01:00:16;;;;;;;8.75;7.82;;;21.60;99.90;;;;;;5051979;28;20294;-70
2023/06/27 01:02:45;;;;;;;9.85;7.72;;;21.60;99.90;;;;;;5051339;28;20683;-73
2023/06/27 01:05:13;;;;;;;8.60;7.47;;;21.60;99.90;;;;;;5043544;28;20304;-77
2023/06/27 01:07:50;;;;;;;11.75;8.43;;;21.70;99.90;;;;;;5045736;28;20245;-73
2023/06/27 01:10:25;;;;;;;9.13;8.02;;;21.80;99.90;;;;;;5051632;28;20280;-71
2023/06/27 01:12:58;;;;;;;10.15;7.88;;;21.80;99.90;;;;;;5051396;28;20237;-78
2023/06/27 01:15:26;;;;;;;8.90;7.63;;;21.90;99.90;;;;;;5051139;28;20246;-77
2023/06/27 01:17:53;;;;;;;9.10;7.93;;;21.90;99.90;;;;;;5051161;28;20683;-65
2023/06/27 01:20:21;;;;;;;10.32;8.20;;;21.90;99.90;;;;;;5050868;28;20651;-64
2023/06/27 01:23:01;;;;;;;10.48;9.30;;;21.90;99.90;;;;;;5050901;28;20694;-66
2023/06/27 01:25:31;;;;;;;9.93;7.97;;;21.90;99.90;;;;;;5050627;28;20728;-64
2023/06/27 01:27:57;;;;;;;10.77;8.00;;;21.90;99.90;;;;;;5050964;28;20245;-77
2023/06/27 01:30:24;;;;;;;12.82;8.18;;;22.00;99.90;;;;;;5050803;28;20242;-64
2023/06/27 01:32:59;;;;;;;7.75;6.95;;;22.00;99.90;;;;;;5050772;28;20246;-64
2023/06/27 01:35:33;;;;;;;9.18;7.40;;;22.00;99.90;;;;;;5050227;28;20230;-64
2023/06/27 01:38:05;;;;;;;13.43;7.20;;;22.00;99.90;;;;;;5051046;28;20662;-66
2023/06/27 01:40:37;;;;;;;10.45;7.20;;;22.00;99.90;;;;;;5036107;28;20687;-66
2023/06/27 01:43:09;;;;;;;10.35;7.38;;;22.00;99.90;;;;;;5050789;28;20203;-66
2023/06/27 01:45:39;;;;;;;8.90;7.47;;;22.00;99.90;;;;;;5050422;28;20237;-66
2023/06/27 01:48:08;;;;;;;9.30;7.05;;;21.90;99.90;;;;;;5050676;28;20667;-66
2023/06/27 01:50:35;;;;;;;7.05;6.35;;;22.00;99.90;;;;;;5050069;28;20253;-66
2023/06/27 01:53:02;;;;;;;8.10;7.20;;;21.90;99.90;;;;;;5050407;28;20250;-67
2023/06/27 01:55:29;;;;;;;7.80;6.22;;;21.90;99.90;;;;;;5050285;28;20249;-77
2023/06/27 01:57:58;;;;;;;7.22;6.53;;;21.90;99.90;;;;;;5050603;28;20202;-67
2023/06/27 02:00:25;;;;;;;6.28;5.68;;;21.90;99.90;;;;;;5049563;28;20231;-67
2023/06/27 02:02:52;;;;;;;7.43;6.63;;;21.90;99.90;;;;;;5036389;28;20235;-67
2023/06/27 02:05:19;;;;;;;11.35;6.57;;;22.00;99.90;;;;;;5049997;28;20250;-67
2023/06/27 02:07:46;;;;;;;7.85;6.88;;;21.90;99.90;;;;;;5050474;28;20674;-66
2023/06/27 02:10:13;;;;;;;9.07;6.35;;;21.90;99.90;;;;;;5050749;28;20297;-66
2023/06/27 02:12:40;;;;;;;8.75;6.50;;;21.90;99.90;;;;;;5049958;28;20245;-66
2023/06/27 02:15:09;;;;;;;7.43;6.70;;;21.80;99.90;;;;;;5050153;28;20277;-67
2023/06/27 02:17:36;;;;;;;8.55;6.50;;;21.80;99.90;;;;;;5049918;28;20234;-77
2023/06/27 02:20:04;;;;;;;6.32;5.55;;;21.90;99.90;;;;;;5050547;28;20261;-65
2023/06/27 02:22:31;;;;;;;6.75;5.47;;;21.80;99.90;;;;;;5049948;28;20213;-65
2023/06/27 02:24:58;;;;;;;7.95;6.78;;;21.70;99.90;;;;;;5050253;28;20257;-66
2023/06/27 02:27:25;;;;;;;7.70;6.78;;;21.70;99.90;;;;;;5049866;28;20242;-65
2023/06/27 02:29:52;;;;;;;7.85;6.28;;;21.70;99.90;;;;;;5049820;28;20594;-65
2023/06/27 02:32:20;;;;;;;8.57;6.03;;;21.70;99.90;;;;;;5050136;28;20245;-65
2023/06/27 02:34:47;;;;;;;6.88;5.93;;;21.70;99.90;;;;;;5049942;28;20234;-65
2023/06/27 02:37:14;;;;;;;8.95;5.57;;;21.70;99.90;;;;;;5050512;28;20690;-80
2023/06/27 02:39:41;;;;;;;7.15;6.05;;;21.60;99.90;;;;;;5038797;28;20239;-72
2023/06/27 02:42:08;;;;;;;9.98;6.38;;;21.60;99.90;;;;;;5047255;28;20247;-66
2023/06/27 02:44:35;;;;;;;7.85;5.70;;;21.50;99.90;;;;;;5049970;28;20238;-70
2023/06/27 02:47:02;;;;;;;6.10;5.07;;;21.60;99.90;;;;;;5050035;28;20659;-67
2023/06/27 02:49:30;;;;;;;8.85;5.57;;;21.60;99.90;;;;;;5049655;28;20218;-66
2023/06/27 02:51:57;;;;;;;7.35;5.65;;;21.60;99.90;;;;;;5050033;28;20246;-68
2023/06/27 02:54:24;;;;;;;8.90;6.05;;;21.60;99.90;;;;;;5049543;28;20682;-70
2023/06/27 02:56:51;;;;;;;6.30;4.43;;;21.60;99.90;;;;;;5049824;28;20245;-70
2023/06/27 02:59:18;;;;;;;8.65;4.97;;;21.50;99.90;;;;;;5049802;28;20238;-66
2023/06/27 03:01:45;;;;;;;11.77;5.22;;;21.40;99.90;;;;;;5050619;28;20256;-69
2023/06/27 03:04:11;;;;;;;5.30;4.80;;;21.40;99.90;;;;;;5049577;28;20257;-68
2023/06/27 03:06:40;;;;;;;5.00;4.50;;;21.40;99.90;;;;;;5049624;28;20737;-70
2023/06/27 03:09:07;;;;;;;7.25;4.68;;;21.40;99.90;;;;;;5049583;28;20261;-65
2023/06/27 03:11:33;;;;;;;6.90;4.78;;;21.50;99.90;;;;;;5049409;28;20242;-65
2023/06/27 03:14:00;;;;;;;6.82;4.78;;;21.50;99.90;;;;;;5053837;28;20325;-66
2023/06/27 03:16:27;;;;;;;7.20;4.75;;;21.40;99.90;;;;;;5052973;28;20242;-67
2023/06/27 03:18:54;;;;;;;7.15;5.38;;;21.40;99.90;;;;;;5053472;28;20280;-67
2023/06/27 03:21:21;;;;;;;7.15;4.53;;;21.40;99.90;;;;;;5052965;28;20239;-66
2023/06/27 03:23:49;;;;;;;6.88;5.13;;;21.40;99.90;;;;;;5053316;28;20658;-67
2023/06/27 03:26:16;;;;;;;4.97;4.47;;;21.40;99.90;;;;;;5053397;28;20245;-67
2023/06/27 03:28:43;;;;;;;9.60;5.18;;;21.40;99.90;;;;;;5053574;28;20253;-65
2023/06/27 03:31:10;;;;;;;8.48;5.13;;;21.40;99.90;;;;;;5053133;28;20583;-66
2023/06/27 03:33:37;;;;;;;6.57;4.70;;;21.40;99.90;;;;;;5052620;28;20245;-67
2023/06/27 03:36:04;;;;;;;5.78;4.70;;;21.30;99.90;;;;;;5053002;28;20650;-67
2023/06/27 03:38:31;;;;;;;6.75;4.10;;;21.30;99.90;;;;;;5050986;28;20234;-67
2023/06/27 03:41:00;;;;;;;6.07;4.72;;;21.30;99.90;;;;;;5041249;28;20234;-66
2023/06/27 03:43:26;;;;;;;4.72;4.05;;;21.30;99.90;;;;;;5052663;28;20211;-67
2023/06/27 03:45:53;;;;;;;6.88;4.32;;;21.30;99.90;;;;;;5052766;28;20695;-67
2023/06/27 03:48:20;;;;;;;5.53;4.57;;;21.30;99.90;;;;;;5052555;28;20238;-67
2023/06/27 03:50:47;;;;;;;5.43;4.00;;;21.30;99.90;;;;;;5052693;28;20234;-67
2023/06/27 03:53:14;;;;;;;8.70;4.47;;;21.30;99.90;;;;;;5053044;28;20250;-67
2023/06/27 03:55:41;;;;;;;5.90;4.00;;;21.30;99.90;;;;;;5052347;28;20325;-67
2023/06/27 03:58:10;;;;;;;5.20;4.40;;;21.30;99.90;;;;;;5053055;28;20254;-71
2023/06/27 04:00:38;;;;;;;5.28;3.78;;;21.20;99.90;;;;;;5052567;28;20207;-67
2023/06/27 04:03:04;;;;;;;4.80;3.58;;;21.30;99.90;;;;;;5052799;28;20280;-67
2023/06/27 04:05:31;;;;;;;8.70;4.10;;;21.30;99.90;;;;;;5052172;28;20245;-67
2023/06/27 04:07:58;;;;;;;7.07;4.13;;;21.30;99.90;;;;;;5052644;28;20242;-67
2023/06/27 04:10:25;;;;;;;5.50;4.82;;;21.30;99.90;;;;;;5052140;28;20686;-67
2023/06/27 04:12:52;;;;;;;5.25;3.92;;;21.30;99.90;;;;;;5052382;28;20300;-67
2023/06/27 04:15:20;;;;;;;4.47;3.13;;;21.30;99.90;;;;;;5051829;28;20281;-67
2023/06/27 04:17:47;;;;;;;4.72;3.55;;;21.20;99.90;;;;;;5052389;28;20242;-67
2023/06/27 04:20:14;;;;;;;8.10;4.47;;;21.30;99.90;;;;;;5052622;28;20290;-67
2023/06/27 04:22:41;;;;;;;7.18;4.07;;;21.30;99.90;;;;;;5052029;28;20246;-75
2023/06/27 04:25:11;;;;;;;4.88;3.70;;;21.30;99.90;;;;;;5051446;28;20241;-68
2023/06/27 04:27:37;;;;;;;6.40;4.10;;;21.30;99.90;;;;;;5051963;28;20214;-67
2023/06/27 04:30:05;;;;;;;4.68;4.13;;;21.30;99.90;;;;;;5051975;28;20293;-67
2023/06/27 04:32:34;;;;;;;6.63;4.22;;;21.40;99.90;;;;;;5051706;28;20215;-67
2023/06/27 04:35:01;;;;;;;4.93;4.05;;;21.30;99.90;;;;;;5051741;28;20722;-67
2023/06/27 04:37:29;;;;;;;4.10;3.20;;;21.30;99.90;;;;;;5051874;28;20241;-76
2023/06/27 04:39:56;;;;;;;6.38;4.90;;;21.30;99.90;;;;;;5038843;28;20214;-72
2023/06/27 04:42:23;;;;;;;6.97;4.20;;;21.30;99.90;;;;;;5050828;28;20209;-66
2023/06/27 04:44:49;;;;;;;5.75;4.72;;;21.30;99.90;;;;;;5051678;28;20238;-67
2023/06/27 04:47:16;;;;;;;4.80;3.90;;;21.30;99.90;;;;;;5051784;28;20240;-67
2023/06/27 04:49:45;;;;;;;9.52;5.47;;;21.30;99.90;;;;;;5052135;28;20206;-67
2023/06/27 04:52:11;;;;;;;8.82;4.47;;;21.30;99.90;;;;;;5051472;28;20643;-67
2023/06/27 04:54:38;;;;;;;3.78;3.47;;;21.30;99.90;;;;;;5051094;28;20822;-66
2023/06/27 04:57:06;;;;;;;4.85;4.43;;;21.30;99.90;;;;;;5051564;28;20207;-66
2023/06/27 04:59:33;;;;;;;7.63;4.40;;;21.30;99.90;;;;;;5050693;28;20238;-67
2023/06/27 05:02:00;;;;;;;5.28;4.38;;;21.30;99.90;;;;;;5051646;28;20257;-66
2023/06/27 05:04:27;;;;;;;6.20;5.03;;;21.20;99.90;;;;;;5050622;28;20238;-67
2023/06/27 05:06:55;;;;;;;5.35;4.68;;;21.20;99.90;;;;;;5051505;28;20243;-70
2023/06/27 05:09:22;;;;;;;7.13;4.07;;;21.30;99.90;;;;;;5050927;28;20243;-67
2023/06/27 05:11:49;;;;;;;5.22;4.13;;;21.30;99.90;;;;;;5051402;28;20203;-68
2023/06/27 05:14:16;;;;;;;6.45;4.90;;;21.30;99.90;;;;;;5051004;28;20234;-67
2023/06/27 05:16:43;;;;;;;5.93;4.15;;;21.30;99.90;;;;;;5051071;28;20646;-67
2023/06/27 05:19:10;;;;;;;5.25;4.57;;;21.30;99.90;;;;;;5051069;28;20214;-67
2023/06/27 05:21:37;;;;;;;7.57;4.65;;;21.20;99.90;;;;;;5050962;28;20333;-67
2023/06/27 05:24:06;;;;;;;5.70;4.53;;;21.20;99.90;;;;;;5050994;28;20663;-68
2023/06/27 05:26:33;;;;;;;6.50;4.50;;;21.20;99.90;;;;;;5047787;28;20253;-77
2023/06/27 05:29:01;;;;;;;10.10;4.40;;;21.30;99.90;;;;;;5050394;28;20210;-76
2023/06/27 05:31:28;;;;;;;5.22;4.07;;;21.30;99.90;;;;;;5050275;28;20199;-76
2023/06/27 05:33:55;;;;;;;6.63;4.68;;;21.30;99.90;;;;;;5051240;28;20235;-68
2023/06/27 05:36:22;;;;;;;9.85;5.18;;;21.40;99.90;;;;;;5050299;28;20266;-68
2023/06/27 05:38:49;;;;;;;7.95;4.68;;;21.40;99.90;;;;;;5046938;28;20246;-69
2023/06/27 05:41:18;;;;;;;6.95;5.47;;;21.40;99.90;;;;;;5041587;28;20246;-71
2023/06/27 05:43:46;;;;;;;4.68;3.97;;;21.40;99.90;;;;;;5050684;28;20246;-71
2023/06/27 05:46:12;;;;;;;5.57;4.25;;;21.40;99.90;;;;;;5050961;28;20211;-68
2023/06/27 05:48:39;;;;;;;5.40;3.50;;;21.40;99.90;;;;;;5050220;28;20241;-77
2023/06/27 05:51:06;;;;;;;6.93;4.32;;;21.50;99.90;;;;;;5050448;28;20242;-68
2023/06/27 05:53:33;;;;;;;7.45;4.18;;;21.50;99.90;;;;;;5050079;28;20255;-73
2023/06/27 05:56:00;;;;;;;9.48;4.25;;;21.50;99.90;;;;;;5050351;28;20266;-76
2023/06/27 05:58:29;;;;;;;6.55;4.13;;;21.60;99.90;;;;;;5050120;28;20242;-76
2023/06/27 06:00:55;;;;;;;4.63;4.13;;;21.60;99.90;;;;;;5050128;28;20210;-69
2023/06/27 06:03:24;;;;;;;6.20;3.90;;;21.70;99.90;;;;;;5049942;28;20234;-83
2023/06/27 06:05:50;;;;;;;8.73;4.68;;;21.70;99.90;;;;;;5050393;28;20235;-69
2023/06/27 06:08:17;;;;;;;8.85;4.13;;;21.70;99.90;;;;;;5043480;28;20239;-69
2023/06/27 06:10:45;;;;;;;6.20;3.92;;;21.70;99.90;;;;;;5049146;28;20295;-76
2023/06/27 06:13:12;;;;;;;3.45;3.15;;;21.70;99.90;;;;;;5044828;28;20203;-68
2023/06/27 06:15:40;;;;;;;4.60;3.33;;;21.80;99.90;;;;;;5048110;28;20406;-71
2023/06/27 06:18:07;;;;;;;7.82;4.05;;;21.80;99.90;;;;;;5048062;28;20325;-70
2023/06/27 06:20:34;;;;;;;3.90;3.03;;;21.80;99.90;;;;;;5048979;28;20331;-69
2023/06/27 06:23:01;;;;;;;5.72;3.90;;;21.80;99.90;;;;;;5048624;28;20239;-71
2023/06/27 06:25:28;;;;;;;5.30;3.50;;;21.90;99.90;;;;;;5048093;28;20679;-70
2023/06/27 06:27:55;;;;;;;7.03;3.03;;;21.90;99.90;;;;;;5048958;28;20268;-70
2023/06/27 06:30:22;;;;;;;5.03;3.17;;;21.90;99.90;;;;;;5049758;28;20238;-70
2023/06/27 06:32:50;;;;;;;5.47;3.13;;;21.90;99.90;;;;;;5050182;28;20238;-71
2023/06/27 06:35:18;;;;;;;5.03;2.85;;;21.90;99.90;;;;;;5050183;28;20266;-68
2023/06/27 06:37:45;;;;;;;5.20;3.22;;;22.00;99.90;;;;;;5047999;28;20207;-70
2023/06/27 06:40:13;;;;;;;4.65;3.20;;;22.00;99.90;;;;;;5035549;28;20571;-69
2023/06/27 06:42:40;;;;;;;4.50;3.17;;;22.10;99.90;;;;;;5049138;28;20245;-69
2023/06/27 06:45:09;;;;;;;7.38;3.40;;;22.20;99.90;;;;;;5049150;28;20215;-69
2023/06/27 06:47:35;;;;;;;4.10;3.70;;;22.20;99.90;;;;;;5050469;28;20207;-69
2023/06/27 06:50:04;;;;;;;4.72;3.22;;;22.30;99.90;;;;;;5053924;28;20242;-69
2023/06/27 06:52:31;;;;;;;4.43;3.53;;;22.40;99.90;;;;;;5053264;28;20247;-69
2023/06/27 06:54:58;;;;;;;7.72;3.50;;;22.40;99.90;;;;;;5053750;28;20272;-69
2023/06/27 06:57:25;;;;;;;6.97;2.88;;;22.40;99.90;;;;;;5053280;28;20245;-69
2023/06/27 06:59:52;;;;;;;3.22;2.47;;;22.50;99.90;;;;;;5053741;28;20678;-69
2023/06/27 07:02:19;;;;;;;6.57;2.70;;;22.60;99.90;;;;;;5053381;28;20594;-70
2023/06/27 07:04:46;;;;;;;5.75;2.97;;;22.60;99.90;;;;;;5053468;28;20234;-70
2023/06/27 07:07:14;;;;;;;5.03;3.15;;;22.70;99.90;;;;;;5053470;28;20238;-77
2023/06/27 07:09:41;;;;;;;6.53;3.30;;;22.70;99.90;;;;;;5048498;28;20636;-79
2023/06/27 07:12:09;;;;;;;4.30;2.85;;;22.80;99.90;;;;;;5053282;28;20285;-69
2023/06/27 07:14:36;;;;;;;3.97;3.58;;;22.90;99.90;;;;;;5052493;28;20203;-69
2023/06/27 07:17:03;;;;;;;4.43;2.70;;;22.90;99.90;;;;;;5053290;28;20289;-70
2023/06/27 07:19:29;;;;;;;7.43;3.30;;;23.00;99.90;;;;;;5052875;28;20257;-70
2023/06/27 07:21:56;;;;;;;3.70;2.65;;;23.10;99.90;;;;;;5052808;28;20234;-70
2023/06/27 07:24:25;;;;;;;4.40;2.58;;;23.10;99.90;;;;;;5052961;28;20230;-78
2023/06/27 07:26:52;;;;;;;4.43;2.75;;;23.20;99.90;;;;;;5053418;28;20245;-80
2023/06/27 07:29:21;;;;;;;6.15;3.08;;;23.30;99.90;;;;;;5052797;28;20662;-70
2023/06/27 07:31:48;;;;;;;5.00;2.95;;;23.70;99.90;;;;;;5053244;28;20625;-69
2023/06/27 07:34:15;;;;;;;5.38;2.65;;;23.50;99.90;;;;;;5053514;28;20234;-70
2023/06/27 07:36:42;;;;;;;4.05;2.75;;;23.50;99.90;;;;;;5051977;28;20230;-70
2023/06/27 07:39:10;;;;;;;4.57;2.75;;;23.50;99.90;;;;;;5046264;28;20204;-80
2023/06/27 07:41:38;;;;;;;3.70;2.10;;;23.50;99.90;;;;;;5051837;28;20258;-70
2023/06/27 07:44:05;;;;;;;5.47;3.25;;;23.60;99.90;;;;;;5052125;28;20234;-69
2023/06/27 07:46:32;;;;;;;5.30;3.50;;;23.60;99.90;;;;;;5052430;28;20679;-69
2023/06/27 07:48:59;;;;;;;2.88;2.15;;;24.10;99.90;;;;;;5052855;28;20230;-79
2023/06/27 07:51:26;;;;;;;5.25;3.45;;;24.10;99.90;;;;;;5052414;28;20269;-70
2023/06/27 07:53:54;;;;;;;3.33;2.42;;;24.00;99.90;;;;;;5052450;28;20745;-69
2023/06/27 07:56:21;;;;;;;12.48;3.53;;;24.00;99.90;;;;;;5051790;28;20266;-70
2023/06/27 07:58:49;;;;;;;5.65;2.80;;;24.00;99.90;;;;;;5050601;28;20666;-69
2023/06/27 08:01:16;;;;;;;4.57;2.17;;;23.90;99.90;;;;;;5052919;28;20239;-69
2023/06/27 08:03:43;;;;;;;5.30;2.85;;;24.20;99.90;;;;;;5052808;28;20246;-69
2023/06/27 08:06:10;;;;;;;5.57;2.50;;;24.40;99.90;;;;;;5052511;28;20238;-70
2023/06/27 08:08:37;;;;;;;3.00;2.60;;;24.40;99.90;;;;;;5051863;28;20238;-71
2023/06/27 08:11:04;;;;;;;2.60;2.40;;;24.40;99.90;;;;;;5052340;28;20577;-78
2023/06/27 08:13:31;;;;;;;3.08;2.63;;;24.30;99.90;;;;;;5051806;28;20241;-69
2023/06/27 08:16:00;;;;;;;4.63;2.30;;;24.20;99.90;;;;;;5052397;28;20266;-71
2023/06/27 08:18:26;;;;;;;5.50;2.40;;;24.20;99.90;;;;;;5052314;28;20238;-70
2023/06/27 08:20:53;;;;;;;4.50;2.78;;;24.20;99.90;;;;;;5052051;28;20268;-70
2023/06/27 08:23:20;;;;;;;3.38;3.05;;;24.30;99.90;;;;;;5051712;28;20246;-80
2023/06/27 08:25:47;;;;;;;6.10;2.70;;;24.40;99.90;;;;;;5047379;28;20644;-68
2023/06/27 08:28:14;;;;;;;7.55;2.70;;;24.40;99.90;;;;;;5051512;28;20214;-69
2023/06/27 08:30:41;;;;;;;3.67;2.65;;;24.50;99.90;;;;;;5051739;28;20238;-68
2023/06/27 08:33:09;;;;;;;4.80;1.92;;;24.50;99.90;;;;;;5049175;28;20660;-69
2023/06/27 08:35:36;;;;;;;5.07;2.90;;;24.50;99.90;;;;;;5051683;28;20231;-69
2023/06/27 08:38:04;;;;;;;6.65;3.15;;;24.80;99.90;;;;;;5046765;28;20679;-72
2023/06/27 08:40:35;;;;;;;7.15;2.58;;;24.80;99.90;;;;;;5047501;28;20327;-67
2023/06/27 08:43:02;;;;;;;3.35;2.63;;;24.80;99.90;;;;;;5048481;28;20695;-71
2023/06/27 08:45:29;;;;;;;3.50;3.17;;;25.20;99.90;;;;;;5047153;28;20268;-75
2023/06/27 08:47:58;;;;;;;5.05;3.28;;;26.50;99.90;;;;;;5051851;28;20257;-67
2023/06/27 08:50:28;;;;;;;3.50;2.78;;;26.60;99.90;;;;;;5049518;28;20231;-67
2023/06/27 08:52:57;;;;;;;4.60;3.75;;;26.50;99.90;;;;;;5051425;28;20257;-68
2023/06/27 08:55:34;;;;;;;5.97;2.75;;;26.50;99.90;;;;;;5050298;28;20211;-68
2023/06/27 08:58:04;;;;;;;4.07;2.88;;;26.80;99.90;;;;;;5051154;28;20217;-68
2023/06/27 09:00:31;;;;;;;5.53;2.65;;;28.60;99.90;;;;;;5048863;28;20206;-68
2023/06/27 09:02:58;;;;;;;3.70;2.53;;;28.30;99.90;;;;;;5049836;28;20235;-68
2023/06/27 09:05:27;;;;;;;4.35;2.53;;;28.00;99.90;;;;;;5049222;28;20238;-69
2023/06/27 09:07:54;;;;;;;5.55;3.00;;;27.70;99.90;;;;;;5049744;28;20689;-68
2023/06/27 09:10:21;;;;;;;5.18;2.97;;;27.80;99.90;;;;;;5049093;28;20691;-68
2023/06/27 09:12:51;;;;;;;3.65;3.20;;;28.20;99.90;;;;;;5049961;28;20245;-68
2023/06/27 09:15:18;;;;;;;4.32;3.28;;;28.80;99.90;;;;;;5051151;28;20203;-69
2023/06/27 09:17:44;;;;;;;4.50;3.03;;;29.90;99.90;;;;;;5051371;28;20277;-68
2023/06/27 09:20:13;;;;;;;3.70;2.67;;;29.90;99.90;;;;;;5050848;28;20257;-68
2023/06/27 09:22:42;;;;;;;3.33;2.97;;;29.10;99.90;;;;;;5050679;28;20257;-77
2023/06/27 09:25:14;;;;;;;2.80;2.60;;;28.10;99.90;;;;;;5051239;28;20235;-68
2023/06/27 09:27:41;;;;;;;5.82;3.83;;;27.70;99.90;;;;;;5050704;28;20285;-68
2023/06/27 09:30:09;;;;;;;4.63;3.70;;;27.50;99.90;;;;;;5050944;28;20686;-68
2023/06/27 09:32:51;;;;;;;6.05;3.58;;;27.30;99.90;;;;;;5050343;28;20288;-68
2023/06/27 09:35:18;;;;;;;5.30;4.07;;;27.20;99.90;;;;;;5050889;28;20206;-69
2023/06/27 09:37:47;;;;;;;3.97;3.33;;;27.40;99.90;;;;;;5050904;28;20272;-68
2023/06/27 09:40:19;;;;;;;3.92;3.22;;;27.70;99.90;;;;;;5047001;28;20245;-77
2023/06/27 09:42:51;;;;;;;5.05;3.05;;;28.40;99.90;;;;;;5051263;28;20260;-68
2023/06/27 09:45:18;;;;;;;5.25;3.67;;;29.80;99.90;;;;;;5050597;28;20674;-68
2023/06/27 09:47:47;;;;;;;4.57;3.15;;;32.20;99.90;;;;;;5051440;28;20293;-68
2023/06/27 09:50:13;;;;;;;4.10;3.38;;;32.30;99.90;;;;;;5050821;28;20260;-68
2023/06/27 09:52:40;;;;;;;3.58;3.13;;;31.70;99.90;;;;;;5050189;28;20263;-69
2023/06/27 09:55:18;;;;;;;4.18;2.90;;;32.60;99.90;;;;;;5050646;28;20245;-68
2023/06/27 09:57:45;;;;;;;3.33;2.65;;;34.20;99.90;;;;;;5050793;28;20260;-68
2023/06/27 10:00:13;;;;;;;5.70;3.20;;;35.70;99.90;;;;;;5050798;28;20202;-68
2023/06/27 10:02:41;;;;;;;5.13;3.08;;;36.10;99.90;;;;;;5050027;28;20621;-69
2023/06/27 10:05:09;;;;;;;3.08;2.63;;;36.90;99.90;;;;;;5050283;28;20205;-69
2023/06/27 10:07:36;;;;;;;3.20;2.83;;;36.80;99.90;;;;;;5050005;28;20948;-69
2023/06/27 10:10:04;;;;;;;3.10;2.78;;;38.10;99.90;;;;;;5050365;28;20233;-69
2023/06/27 10:12:33;;;;;;;3.40;3.10;;;38.80;99.90;;;;;;5049807;28;20249;-78
2023/06/27 10:15:00;;;;;;;3.30;2.47;;;38.10;99.90;;;;;;5050224;28;20245;-69
2023/06/27 10:17:29;;;;;;;5.70;3.28;;;37.40;99.90;;;;;;5049724;28;20760;-69
2023/06/27 10:19:56;;;;;;;3.85;3.10;;;39.80;99.90;;;;;;5050470;28;20241;-75
2023/06/27 10:22:26;;;;;;;3.10;2.70;;;40.10;99.90;;;;;;5049143;28;20238;-74
2023/06/27 10:24:56;;;;;;;2.38;2.15;;;40.10;99.90;;;;;;5044473;28;20202;-68
2023/06/27 10:27:26;;;;;;;3.78;2.53;;;39.10;99.90;;;;;;5050005;28;20232;-69
2023/06/27 10:29:55;;;;;;;4.70;2.60;;;38.00;99.90;;;;;;5049868;28;20202;-68
2023/06/27 10:32:22;;;;;;;4.35;3.15;;;34.50;99.90;;;;;;5049398;28;20230;-68
2023/06/27 10:34:49;;;;;;;5.70;3.88;;;32.00;99.90;;;;;;5049564;28;20210;-69
2023/06/27 10:37:24;;;;;;;3.05;2.60;;;30.80;99.90;;;;;;5050068;28;20229;-69
2023/06/27 10:39:56;;;;;;;4.53;3.15;;;29.70;99.90;;;;;;5037951;28;20230;-68
2023/06/27 10:42:31;;;;;;;3.58;2.95;;;29.20;99.90;;;;;;5049084;28;20240;-69
2023/06/27 10:45:08;;;;;;;3.15;2.78;;;28.70;99.90;;;;;;5040139;28;20214;-69
2023/06/27 10:47:38;;;;;;;2.78;2.58;;;28.40;99.90;;;;;;5043319;28;20617;-68
2023/06/27 10:50:08;;;;;;;4.50;3.55;;;28.20;99.90;;;;;;5049914;28;20259;-68
2023/06/27 10:52:35;;;;;;;7.80;3.45;;;28.50;99.90;;;;;;5049406;28;20289;-68
2023/06/27 10:55:22;;;;;;;3.53;3.00;;;28.70;99.90;;;;;;5049846;28;20293;-68
2023/06/27 10:57:51;;;;;;;5.38;3.53;;;28.70;99.90;;;;;;5043724;28;20261;-68
2023/06/27 11:00:29;;;;;;;3.10;2.83;;;28.60;99.90;;;;;;5049606;28;20759;-68
2023/06/27 11:02:57;;;;;;;5.18;3.33;;;28.60;99.90;;;;;;5046468;28;20202;-69
2023/06/27 11:05:43;;;;;;;3.22;2.92;;;28.30;99.90;;;;;;5047782;28;20685;-69
2023/06/27 11:08:13;;;;;;;4.32;3.17;;;28.60;99.90;;;;;;5048528;28;20694;-69
2023/06/27 11:10:53;;;;;;;4.75;3.03;;;28.50;99.90;;;;;;5048190;28;20238;-68
2023/06/27 11:13:22;;;;;;;3.38;3.08;;;28.70;99.90;;;;;;5048729;28;20242;-68
2023/06/27 11:15:52;;;;;;;6.28;3.58;;;28.50;99.90;;;;;;5048460;28;20209;-76
2023/06/27 11:18:20;;;;;;;3.17;2.92;;;28.60;99.90;;;;;;5048532;28;20250;-69
2023/06/27 11:20:48;;;;;;;3.58;2.45;;;28.60;99.90;;;;;;5050067;28;20199;-68
2023/06/27 11:23:16;;;;;;;4.93;3.70;;;28.70;99.90;;;;;;5049888;28;20211;-68
2023/06/27 11:25:44;;;;;;;3.20;2.90;;;28.70;99.90;;;;;;5049569;28;20238;-68
2023/06/27 11:28:11;;;;;;;4.45;3.30;;;28.40;99.90;;;;;;5049505;28;20729;-71
2023/06/27 11:30:39;;;;;;;5.85;3.70;;;28.40;99.90;;;;;;5048823;28;20525;-73
2023/06/27 11:33:08;;;;;;;5.13;3.10;;;28.50;99.90;;;;;;5050208;28;20649;-77
2023/06/27 11:35:35;;;;;;;3.42;3.13;;;28.60;99.90;;;;;;5052611;28;20242;-68
2023/06/27 11:38:06;;;;;;;4.43;3.35;;;28.70;99.90;;;;;;5053078;28;20269;-68
2023/06/27 11:40:33;;;;;;;4.05;3.20;;;28.40;99.90;;;;;;5038763;28;20253;-68
2023/06/27 11:43:02;;;;;;;4.40;3.65;;;28.50;99.90;;;;;;5053061;28;20242;-67
2023/06/27 11:45:30;;;;;;;3.20;2.90;;;28.40;99.90;;;;;;5052505;28;20207;-68
2023/06/27 11:47:58;;;;;;;4.07;3.03;;;28.30;99.90;;;;;;5051764;28;20207;-68
2023/06/27 11:50:26;;;;;;;4.82;3.47;;;28.40;99.90;;;;;;5050311;28;20233;-80
2023/06/27 11:52:56;;;;;;;5.00;3.38;;;28.40;99.90;;;;;;5051919;28;20296;-68
2023/06/27 11:55:24;;;;;;;7.20;4.00;;;28.70;99.90;;;;;;5045760;28;20280;-70
2023/06/27 11:57:54;;;;;;;5.80;3.40;;;28.40;99.90;;;;;;5048404;28;20246;-72
2023/06/27 12:00:23;;;;;;;8.15;3.13;;;28.10;99.90;;;;;;5051197;28;20210;-73
2023/06/27 12:02:52;;;;;;;3.47;3.17;;;28.00;99.90;;;;;;5050110;28;20206;-71
2023/06/27 12:05:21;;;;;;;3.30;3.05;;;28.00;99.90;;;;;;5045993;28;20234;-68
2023/06/27 12:08:01;;;;;;;3.38;2.90;;;27.80;99.90;;;;;;5052577;28;20215;-66
2023/06/27 12:10:29;;;;;;;4.82;2.95;;;27.80;99.90;;;;;;5046303;28;20210;-66
2023/06/27 12:12:56;;;;;;;4.22;3.20;;;27.80;99.90;;;;;;5052583;28;20229;-66
2023/06/27 12:15:23;;;;;;;3.97;3.00;;;27.90;99.90;;;;;;5052080;28;20238;-66
2023/06/27 12:17:58;;;;;;;3.92;3.35;;;28.00;99.90;;;;;;5052057;28;20376;-67
2023/06/27 12:20:25;;;;;;;4.47;2.92;;;28.10;99.90;;;;;;5051363;28;20248;-77
2023/06/27 12:22:52;;;;;;;3.22;2.42;;;28.10;99.90;;;;;;5052126;28;20289;-77
2023/06/27 12:25:20;;;;;;;3.15;2.80;;;28.10;99.90;;;;;;5052093;28;20211;-67
2023/06/27 12:27:47;;;;;;;4.55;2.90;;;28.10;99.90;;;;;;5051782;28;20296;-67
2023/06/27 12:30:14;;;;;;;4.07;2.13;;;28.30;99.90;;;;;;5052499;28;20246;-72
2023/06/27 12:32:41;;;;;;;3.28;2.78;;;28.50;99.90;;;;;;5051686;28;20249;-67
2023/06/27 12:35:09;;;;;;;4.15;3.45;;;28.80;99.90;;;;;;5051586;28;20241;-68
2023/06/27 12:37:38;;;;;;;3.58;2.75;;;28.70;99.90;;;;;;5051587;28;20234;-77
2023/06/27 12:40:07;;;;;;;4.32;2.50;;;28.80;99.90;;;;;;5048099;28;20207;-66
2023/06/27 12:42:35;;;;;;;3.53;2.67;;;28.70;99.90;;;;;;5051833;28;20203;-66
2023/06/27 12:45:02;;;;;;;4.28;3.05;;;28.70;99.90;;;;;;5051157;28;20230;-68
2023/06/27 12:47:29;;;;;;;5.55;3.15;;;28.60;99.90;;;;;;5051345;28;20207;-69
2023/06/27 12:49:56;;;;;;;3.45;3.08;;;28.70;99.90;;;;;;5051540;28;20242;-70